Terminal Aerodrome Forecast
Issued by NWS Jackson, MS

Home | Current Version | Previous Version | Text Only | Print | Product List | Glossary On
Versions: 1 2 3 4 5 6 7 8 9 10 11 12
000
FTUS44 KJAN 231720
TAFGLH
TAF
KGLH 231720Z 2318/2418 12005KT P6SM SCT050 SCT250
     FM232100 10006KT P6SM VCTS SCT060 BKN080CB
     FM240100 10005KT P6SM FEW060 SCT250=

USA.gov is the U.S. government's official web portal to all federal, state and local government web resources and services.